Blythe, CA

8:16 AM PDT on August 24, 2016 (GMT -0700)
farmerman92225 | | Change Station

Elev 259 ft 33.62 °N, 114.66 °W | Updated 1 minute ago

Clear
Clear
87.0 °F
Feels Like 87 °F
N
2.0
Wind Variable Wind from SSE
Gusts 7.0 mph

Today
High -- | Low -- °F
--% Chance of Precip.
Yesterday
High -- | Low -- °F
Precip. -- in
Pressure 29.91 in
Visibility 10.0 miles
Clouds Clear
Heat Index 87 °F
Dew Point 60 °F
Humidity 41%
Rainfall 0.00 in
Snow Depth Not available.
6:07 AM 7:13 PM
Waning Gibbous, 56% visible
METAR KBLH 241452Z AUTO 00000KT 10SM CLR 30/12 A2993 RMK AO2 SLP127 T03000117 53015
Pressure 29.91 in
Visibility 10.0 miles
Clouds Clear
Heat Index 87 °F
Dew Point 60 °F
Humidity 41%
Rainfall 0.00 in
Snow Depth Not available.
6:07 AM 7:13 PM
Waning Gibbous, 56% visible
METAR KBLH 241452Z AUTO 00000KT 10SM CLR 30/12 A2993 RMK AO2 SLP127 T03000117 53015

10-Day Weather Forecast

Almanac

Astronomy

Aug. 24, 2016 Rise Set
Actual Time
Civil Twilight
Nautical Twilight
Astronomical Twilight
Moon
Length of Visible Light
Length of Day
Tomorrow will be .
, % of the Moon is Illuminated

Today's Extremes

State Highs State Lows

Community

WunderPhotos

Upload Photos

1,934,616 photos uploaded!

WunderBlog® & News

Nearby

Air Quality

  Air Quality AQ Index Pollutant
Not available.

Snow Depth

Station Depth Elevation

Earthquake Activity

City Distance Mag. Time & Date
Minimum magnitude displayed is 2.5.

Coastal Water Temperatures

Place Temperature

Stations

Nearby Weather Stations

Station Location Temp. Windchill Dew Point Humidity Wind Precip. Elev Updated Type
                   

Watches & Warnings

There are currently no watches in effect.